LIRF

Leonardo da Vinci–Fiumicino Airport

Rome, Italy
TAF LIRF 202300Z 2100/2206 VRB05KT 9999 FEW030 BECMG 2108/2110 23012KT BECMG 2116/2118 VRB05KT TEMPO 2122/2206 4000 BR
Issued Valid From Valid To
Apr-20 @ 23:00 UTC
(5 hours ago)
Apr-21 @ 00:00 UTC
(4 hours ago)
Apr-22 @ 06:00 UTC
(-1 days ago)
Apr-21 @ 00:00 to Apr-21 @ 08:00
TAF LIRF 202300Z 2100/2206 VRB05KT 9999 FEW030
Wind Visibility Clouds
Variable at 5 knots 10,000+ meters
  • Few at 3,000' AGL
Becoming Apr-21 @ 08:00 to Apr-21 @ 16:00
BECMG 2108/2110 23012KT
Wind Visibility Clouds
230° at 12 knots 10,000+ meters
  • Few at 3,000' AGL
Becoming Apr-21 @ 16:00 to Apr-22 @ 06:00
BECMG 2116/2118 VRB05KT
Wind Visibility Clouds
Variable at 5 knots 10,000+ meters
  • Few at 3,000' AGL
Temporary Apr-21 @ 22:00 to Apr-22 @ 06:00
TEMPO 2122/2206 4000 BR
Visibility Conditions
4,007 meters
  • Mist
TAF LIRF 202300Z 2100/2206 VRB05KT 9999 FEW030 BECMG 2108/2110 23012KT BECMG 2116/2118 VRB05KT TEMPO 2122/2206 4000 BR
Issued Apr-20 @ 23:00 UTC
(5 hours ago)
Valid From Apr-21 @ 00:00 UTC
(4 hours ago)
Valid To Apr-22 @ 06:00 UTC
(-1 days ago)
Apr-21 @ 00:00 - Apr-21 @ 08:00
Wind Visibility
Variable at 5 knots 10,000+ meters
Clouds
  • Few at 3,000' AGL
Becoming Apr-21 @ 08:00 - Apr-21 @ 16:00
Wind Visibility
230° at 12 knots 10,000+ meters
Clouds
  • Few at 3,000' AGL
Becoming Apr-21 @ 16:00 - Apr-22 @ 06:00
Wind Visibility
Variable at 5 knots 10,000+ meters
Clouds
  • Few at 3,000' AGL
Temporary Apr-21 @ 22:00 - Apr-22 @ 06:00
Conditions
  • Mist